createdAt,value
2022-11-20T00:01:33.005Z,73.70
2022-11-20T00:04:05.204Z,70.20
2022-11-20T00:06:36.866Z,67.40
2022-11-20T00:09:08.673Z,62.60
2022-11-20T00:11:40.323Z,76.80
2022-11-20T00:14:13.266Z,63.60
2022-11-20T00:16:44.790Z,65.00
2022-11-20T00:19:17.421Z,74.00
2022-11-20T00:21:52.395Z,63.50
2022-11-20T00:24:25.919Z,66.20
2022-11-20T00:26:57.608Z,64.80
2022-11-20T00:29:31.200Z,72.60
2022-11-20T00:32:02.891Z,71.70
2022-11-20T00:34:34.755Z,62.50
2022-11-20T00:37:06.518Z,61.30
2022-11-20T00:39:39.086Z,67.70
2022-11-20T00:42:12.661Z,65.80
2022-11-20T00:44:45.118Z,80.00
2022-11-20T00:47:20.885Z,69.00
2022-11-20T00:49:53.154Z,78.00
2022-11-20T00:52:24.806Z,72.80
2022-11-20T00:54:56.558Z,64.80
2022-11-20T00:57:28.266Z,80.10
2022-11-20T01:00:00.335Z,72.10
2022-11-20T01:02:32.325Z,62.30
2022-11-20T01:05:04.258Z,62.70
2022-11-20T01:07:39.468Z,62.70
2022-11-20T01:10:12.075Z,61.70
2022-11-20T01:12:43.751Z,70.40
2022-11-20T01:15:17.868Z,65.20
2022-11-20T01:17:49.484Z,78.00
2022-11-20T01:20:21.477Z,57.30
2022-11-20T01:22:53.137Z,64.60
2022-11-20T01:25:24.981Z,72.90
2022-11-20T01:27:56.712Z,75.80
2022-11-20T01:30:28.608Z,74.90
2022-11-20T01:33:00.183Z,70.60
2022-11-20T01:35:32.229Z,69.30
2022-11-20T01:38:03.883Z,74.00
2022-11-20T01:40:35.877Z,66.30
2022-11-20T01:43:22.588Z,77.50
2022-11-20T01:46:10.696Z,69.70
2022-11-20T01:48:48.247Z,77.50
2022-11-20T01:51:25.274Z,68.30
2022-11-20T01:53:57.795Z,65.20
2022-11-20T01:56:30.411Z,81.20
2022-11-20T01:59:04.185Z,71.20
2022-11-20T02:01:36.257Z,63.20
2022-11-20T02:04:08.956Z,57.40
2022-11-20T02:06:44.645Z,66.60
2022-11-20T02:09:17.747Z,64.90
2022-11-20T02:11:50.102Z,71.20
2022-11-20T02:14:22.078Z,70.10
2022-11-20T02:16:54.335Z,76.60
2022-11-20T02:19:28.615Z,54.20
2022-11-20T02:22:04.559Z,76.10
2022-11-20T02:24:36.187Z,67.70
2022-11-20T02:27:11.614Z,61.80
2022-11-20T02:29:47.940Z,71.80
2022-11-20T02:32:23.705Z,74.60
2022-11-20T02:34:55.499Z,61.40
2022-11-20T02:37:36.800Z,80.20
2022-11-20T02:40:11.037Z,71.50
2022-11-20T02:42:43.099Z,72.90
2022-11-20T02:45:14.957Z,74.80
2022-11-20T02:47:46.699Z,67.30
2022-11-20T02:50:18.576Z,69.60
2022-11-20T02:52:50.338Z,69.40
2022-11-20T02:55:22.201Z,66.00
2022-11-20T02:57:54.311Z,60.90
2022-11-20T03:00:25.941Z,68.60
2022-11-20T03:02:57.787Z,70.70
2022-11-20T03:05:29.450Z,71.00
2022-11-20T03:08:01.397Z,68.30
2022-11-20T03:10:33.070Z,70.60
2022-11-20T03:13:05.003Z,70.70
2022-11-20T03:15:37.759Z,73.30
2022-11-20T03:18:09.859Z,63.20
2022-11-20T03:20:41.480Z,66.70
2022-11-20T03:23:13.402Z,62.70
2022-11-20T03:25:46.138Z,68.70
2022-11-20T03:28:17.909Z,84.20
2022-11-20T03:30:49.581Z,68.40
2022-11-20T03:33:21.443Z,61.60
2022-11-20T03:35:53.010Z,64.20
2022-11-20T03:38:24.896Z,69.40
2022-11-20T03:41:02.453Z,60.80
2022-11-20T03:43:34.717Z,77.90
2022-11-20T03:46:07.250Z,60.10
2022-11-20T03:48:39.008Z,74.80
2022-11-20T03:51:15.174Z,76.40
2022-11-20T03:53:49.156Z,60.60
2022-11-20T03:56:22.992Z,83.10
2022-11-20T03:58:54.992Z,60.20
2022-11-20T04:01:28.652Z,61.20
2022-11-20T04:04:00.870Z,77.40
2022-11-20T04:06:35.928Z,73.70
2022-11-20T04:09:09.059Z,81.40
2022-11-20T04:11:43.410Z,67.40
2022-11-20T04:14:17.800Z,47.60
2022-11-20T04:16:49.386Z,60.60
2022-11-20T04:19:21.275Z,65.40
2022-11-20T04:21:53.172Z,72.40
2022-11-20T04:24:25.436Z,62.70
2022-11-20T04:26:57.069Z,67.00
2022-11-20T04:29:29.045Z,58.40
2022-11-20T04:32:00.638Z,74.20
2022-11-20T04:34:32.338Z,77.70
2022-11-20T04:37:03.972Z,59.00
2022-11-20T04:39:36.153Z,55.90
2022-11-20T04:42:25.711Z,60.20
2022-11-20T04:44:58.685Z,62.40
2022-11-20T04:47:30.489Z,65.80
2022-11-20T04:50:02.332Z,63.70
2022-11-20T04:52:34.029Z,66.30
2022-11-20T04:55:06.585Z,60.40
2022-11-20T04:57:38.310Z,69.90
2022-11-20T05:00:12.850Z,69.20
2022-11-20T05:02:44.682Z,62.80
2022-11-20T05:05:17.164Z,70.10
2022-11-20T05:07:48.798Z,57.80
2022-11-20T05:10:20.731Z,54.00
2022-11-20T05:12:52.362Z,64.40
2022-11-20T05:15:24.281Z,63.60
2022-11-20T05:17:56.513Z,73.40
2022-11-20T05:20:28.255Z,63.00
2022-11-20T05:23:01.330Z,67.40
2022-11-20T05:25:33.261Z,59.60
2022-11-20T05:28:05.079Z,62.20
2022-11-20T05:30:37.087Z,66.90
2022-11-20T05:33:10.073Z,71.80
2022-11-20T05:35:41.801Z,72.10
2022-11-20T05:38:13.465Z,56.10
2022-11-20T05:40:45.289Z,58.10
2022-11-20T05:43:16.944Z,68.30
2022-11-20T05:45:57.283Z,63.30
2022-11-20T05:48:29.070Z,67.00
2022-11-20T05:51:02.508Z,56.70
2022-11-20T05:53:35.441Z,76.60
2022-11-20T05:56:11.139Z,70.70
2022-11-20T05:58:43.111Z,60.80
2022-11-20T06:01:17.699Z,65.80
2022-11-20T06:03:51.677Z,71.30
2022-11-20T06:06:24.516Z,69.40
2022-11-20T06:08:56.309Z,70.80
2022-11-20T06:11:28.413Z,62.70
2022-11-20T06:14:00.048Z,67.40
2022-11-20T06:16:32.128Z,65.20
2022-11-20T06:19:03.778Z,66.40
2022-11-20T06:21:35.826Z,51.10
2022-11-20T06:24:08.262Z,61.70
2022-11-20T06:26:42.394Z,59.00
2022-11-20T06:31:44.679Z,60.70
2022-11-20T06:34:16.429Z,52.70
2022-11-20T06:36:48.605Z,61.20
2022-11-20T06:39:20.695Z,77.30
2022-11-20T06:41:58.369Z,71.00
2022-11-20T06:44:30.665Z,54.70
2022-11-20T06:47:02.384Z,60.30
2022-11-20T06:49:35.389Z,60.80
2022-11-20T06:52:07.433Z,60.20
2022-11-20T06:54:39.135Z,79.00
2022-11-20T06:57:11.587Z,70.70
2022-11-20T06:59:43.251Z,61.60
2022-11-20T07:02:15.808Z,56.20
2022-11-20T07:04:47.488Z,63.10
2022-11-20T07:07:19.564Z,77.70
2022-11-20T07:09:54.036Z,67.40
2022-11-20T07:12:25.740Z,67.10
2022-11-20T07:14:57.687Z,63.10
2022-11-20T07:17:29.499Z,66.60
2022-11-20T07:20:01.371Z,65.80
2022-11-20T07:22:33.267Z,73.10
2022-11-20T07:25:05.650Z,65.80
2022-11-20T07:27:37.887Z,63.50
2022-11-20T07:30:11.130Z,54.30
2022-11-20T07:32:42.773Z,66.70
2022-11-20T07:35:14.445Z,60.00
2022-11-20T07:37:47.075Z,64.50
2022-11-20T07:40:20.887Z,69.90
2022-11-20T07:42:53.434Z,58.20
2022-11-20T07:45:26.075Z,48.60
2022-11-20T07:47:58.126Z,68.50
2022-11-20T07:50:29.810Z,64.60
2022-11-20T07:53:09.085Z,60.90
2022-11-20T07:55:40.708Z,79.00
2022-11-20T07:58:12.951Z,72.00
2022-11-20T08:00:44.840Z,62.20
2022-11-20T08:03:21.646Z,60.30
2022-11-20T08:05:56.348Z,70.90
2022-11-20T08:08:28.055Z,55.00
2022-11-20T08:11:22.212Z,67.90
2022-11-20T08:14:11.849Z,68.80
2022-11-20T08:16:44.163Z,58.60
2022-11-20T08:19:18.578Z,66.20
2022-11-20T08:21:50.644Z,73.20
2022-11-20T08:24:22.781Z,70.20
2022-11-20T08:26:54.427Z,67.00
2022-11-20T08:29:26.139Z,64.10
2022-11-20T08:31:57.788Z,70.50
2022-11-20T08:34:43.129Z,66.40
2022-11-20T08:37:14.717Z,73.60
2022-11-20T08:39:48.171Z,67.50
2022-11-20T08:42:19.967Z,64.50
2022-11-20T08:44:51.969Z,72.30
2022-11-20T08:47:23.598Z,68.10
2022-11-20T08:49:55.544Z,67.60
2022-11-20T08:52:27.165Z,68.70
2022-11-20T08:54:59.452Z,63.20
2022-11-20T08:57:31.036Z,69.60
2022-11-20T09:00:07.124Z,71.90
2022-11-20T09:02:39.079Z,71.00
2022-11-20T09:05:11.545Z,61.00
2022-11-20T09:07:43.256Z,71.40
2022-11-20T09:10:24.473Z,63.90
2022-11-20T09:12:57.416Z,70.60
2022-11-20T09:15:30.272Z,64.50
2022-11-20T09:18:03.476Z,65.10
2022-11-20T09:20:35.384Z,58.60
2022-11-20T09:23:07.012Z,68.20
2022-11-20T09:25:39.028Z,68.20
2022-11-20T09:28:10.704Z,65.50
2022-11-20T09:30:42.870Z,60.70
2022-11-20T09:33:14.636Z,66.10
2022-11-20T09:35:46.632Z,65.70
2022-11-20T09:38:18.351Z,61.40
2022-11-20T09:40:55.339Z,65.50
2022-11-20T09:43:35.248Z,55.10
2022-11-20T09:46:12.968Z,63.50
2022-11-20T09:48:54.691Z,56.10
2022-11-20T09:51:35.691Z,67.80
2022-11-20T09:54:17.744Z,64.30
2022-11-20T09:56:54.160Z,60.90
2022-11-20T09:59:37.492Z,55.90
2022-11-20T10:02:30.602Z,69.00
2022-11-20T10:05:06.627Z,58.70
2022-11-20T10:07:43.752Z,57.60
2022-11-20T10:10:19.793Z,74.30
2022-11-20T10:13:03.579Z,51.80
2022-11-20T10:15:40.510Z,64.50
2022-11-20T10:18:25.997Z,65.00
2022-11-20T10:21:04.926Z,53.50
2022-11-20T10:23:51.207Z,61.30
2022-11-20T10:26:28.347Z,58.80
2022-11-20T10:29:09.098Z,60.70
2022-11-20T10:31:43.187Z,70.20
2022-11-20T10:34:23.571Z,64.80
2022-11-20T10:36:58.592Z,68.30
2022-11-20T10:39:36.486Z,65.00
2022-11-20T10:42:13.039Z,59.40
2022-11-20T10:45:06.753Z,61.50
2022-11-20T10:47:39.216Z,72.90
2022-11-20T10:50:19.029Z,49.60
2022-11-20T10:53:03.357Z,69.70
2022-11-20T10:55:40.920Z,68.50
2022-11-20T10:58:19.325Z,54.20
2022-11-20T11:00:51.429Z,61.40
2022-11-20T11:03:28.320Z,71.50
2022-11-20T11:06:03.688Z,71.40
2022-11-20T11:08:39.876Z,72.20
2022-11-20T11:11:24.379Z,61.70
2022-11-20T11:13:56.120Z,57.00
2022-11-20T11:16:29.332Z,66.50
2022-11-20T11:19:12.822Z,52.90
2022-11-20T11:21:55.654Z,54.60
2022-11-20T11:24:44.215Z,56.20
2022-11-20T11:27:19.156Z,71.30
2022-11-20T11:29:51.039Z,56.90
2022-11-20T11:32:24.088Z,62.20
2022-11-20T11:35:08.485Z,62.30
2022-11-20T11:37:41.329Z,55.40
2022-11-20T11:40:30.087Z,66.90
2022-11-20T11:43:04.125Z,66.90
2022-11-20T11:45:36.016Z,65.80
2022-11-20T11:48:12.162Z,62.70
2022-11-20T11:50:52.992Z,54.50
2022-11-20T11:53:26.000Z,60.30
2022-11-20T11:56:04.927Z,62.70
2022-11-20T11:58:47.098Z,63.90
2022-11-20T12:01:29.342Z,63.60
2022-11-20T12:04:04.881Z,60.60
2022-11-20T12:06:38.766Z,51.20
2022-11-20T12:09:12.935Z,52.90
2022-11-20T12:11:49.409Z,66.10
2022-11-20T12:14:28.607Z,57.20
2022-11-20T12:17:00.645Z,59.10
2022-11-20T12:19:34.978Z,63.50
2022-11-20T12:22:14.163Z,60.50
2022-11-20T12:24:56.294Z,72.00
2022-11-20T12:27:50.089Z,61.40
2022-11-20T12:30:23.315Z,61.30
2022-11-20T12:33:29.248Z,61.70
2022-11-20T12:36:12.067Z,56.40
2022-11-20T12:39:00.115Z,57.30
2022-11-20T12:42:05.990Z,55.70
2022-11-20T12:45:11.823Z,50.30
2022-11-20T12:48:11.806Z,58.50
2022-11-20T12:51:13.924Z,56.40
2022-11-20T12:53:49.701Z,54.00
2022-11-20T12:56:29.937Z,67.00
2022-11-20T12:59:11.786Z,58.70
2022-11-20T13:01:50.735Z,63.30
2022-11-20T13:04:34.631Z,62.40
2022-11-20T13:07:10.939Z,56.00
2022-11-20T13:09:45.893Z,60.30
2022-11-20T13:12:22.246Z,59.40
2022-11-20T13:14:58.211Z,64.30
2022-11-20T13:17:35.636Z,61.50
2022-11-20T13:20:14.279Z,62.30
2022-11-20T13:22:50.723Z,57.90
2022-11-20T13:25:33.706Z,64.40
2022-11-20T13:28:07.934Z,56.80
2022-11-20T13:30:50.919Z,55.10
2022-11-20T13:33:31.406Z,56.80
2022-11-20T13:36:05.638Z,61.10
2022-11-20T13:41:32.488Z,56.10
2022-11-20T13:44:15.749Z,61.70
2022-11-20T13:46:49.153Z,62.30
2022-11-20T13:49:26.057Z,53.30
2022-11-20T13:52:08.844Z,54.20
2022-11-20T13:54:55.275Z,56.30
2022-11-20T13:57:47.163Z,62.80
2022-11-20T14:00:21.698Z,57.40
2022-11-20T14:03:04.223Z,59.10
2022-11-20T14:05:39.225Z,55.90
2022-11-20T14:08:28.021Z,49.10
2022-11-20T14:11:14.832Z,59.90
2022-11-20T14:14:03.363Z,55.60
2022-11-20T14:16:37.066Z,60.40
2022-11-20T14:19:31.554Z,58.70
2022-11-20T14:22:20.222Z,65.40
2022-11-20T14:25:03.392Z,51.30
2022-11-20T14:27:37.925Z,56.80
2022-11-20T14:30:17.742Z,54.80
2022-11-20T14:32:50.587Z,61.90
2022-11-20T14:35:26.266Z,63.60
2022-11-20T14:37:58.551Z,52.70
2022-11-20T14:40:37.063Z,62.50
2022-11-20T14:43:25.584Z,51.30
2022-11-20T14:46:02.063Z,52.70
2022-11-20T14:48:40.928Z,52.90
2022-11-20T14:51:21.570Z,52.70
2022-11-20T14:54:16.340Z,58.50
2022-11-20T14:56:59.563Z,59.60
2022-11-20T14:59:32.607Z,48.30
2022-11-20T15:02:07.489Z,53.10
2022-11-20T15:04:48.439Z,62.40
2022-11-20T15:07:31.528Z,59.50
2022-11-20T15:10:10.369Z,55.40
2022-11-20T15:12:48.177Z,49.00
2022-11-20T15:15:23.083Z,62.80
2022-11-20T15:17:55.366Z,47.30
2022-11-20T15:20:31.775Z,48.90
2022-11-20T15:23:04.501Z,63.40
2022-11-20T15:25:40.030Z,64.40
2022-11-20T15:28:18.749Z,56.20
2022-11-20T15:30:52.116Z,58.60
2022-11-20T15:33:26.891Z,42.80
2022-11-20T15:36:01.101Z,53.80
2022-11-20T15:38:34.186Z,58.60
2022-11-20T15:41:10.609Z,55.70
2022-11-20T15:43:45.054Z,56.60
2022-11-20T15:46:21.756Z,53.00
2022-11-20T15:48:58.619Z,56.40
2022-11-20T15:51:33.111Z,54.80
2022-11-20T15:54:10.420Z,50.40
2022-11-20T15:56:43.403Z,49.10
2022-11-20T15:59:17.361Z,50.20
2022-11-20T16:04:25.008Z,47.50
2022-11-20T16:07:02.065Z,48.70
2022-11-20T16:09:34.674Z,44.00
2022-11-20T16:12:30.624Z,55.40
2022-11-20T16:15:21.269Z,64.50
2022-11-20T16:17:57.140Z,52.90
2022-11-20T16:20:30.651Z,63.80
2022-11-20T16:23:12.477Z,59.60
2022-11-20T16:25:46.142Z,54.20
2022-11-20T16:28:19.314Z,61.10
2022-11-20T16:30:52.146Z,59.70
2022-11-20T16:33:25.939Z,57.10
2022-11-20T16:36:01.929Z,55.90
2022-11-20T16:38:34.762Z,59.90
2022-11-20T16:41:14.485Z,60.00
2022-11-20T16:43:51.857Z,56.00
2022-11-20T17:12:50.280Z,61.70
2022-11-20T17:15:22.218Z,53.20
2022-11-20T17:17:54.202Z,64.80
2022-11-20T17:20:26.250Z,65.70
2022-11-20T17:22:59.420Z,61.30
2022-11-20T17:25:36.607Z,64.80
2022-11-20T17:28:09.221Z,63.90
2022-11-20T17:30:41.878Z,55.00
2022-11-20T17:33:14.673Z,53.80
2022-11-20T17:35:47.005Z,58.90
2022-11-20T17:38:19.770Z,51.00
2022-11-20T17:40:51.634Z,62.50
2022-11-20T17:43:23.789Z,53.70
2022-11-20T17:45:58.930Z,56.90
2022-11-20T17:48:34.428Z,64.80
2022-11-20T17:51:08.335Z,58.20
2022-11-20T17:53:45.545Z,63.40
2022-11-20T17:56:34.915Z,52.80
2022-11-20T17:59:09.141Z,59.10
2022-11-20T18:01:43.263Z,62.70
2022-11-20T18:06:46.687Z,57.00
2022-11-20T18:09:19.881Z,69.60
2022-11-20T18:11:51.766Z,54.60
2022-11-20T18:14:34.663Z,60.90
2022-11-20T18:17:07.737Z,57.50
2022-11-20T18:19:51.619Z,61.70
2022-11-20T18:22:32.584Z,65.20
2022-11-20T18:25:04.320Z,67.50
2022-11-20T18:27:36.533Z,73.10
2022-11-20T18:30:10.309Z,58.10
2022-11-20T18:32:42.825Z,70.90
2022-11-20T18:35:15.344Z,63.10
2022-11-20T18:37:48.157Z,72.10
2022-11-20T18:40:20.552Z,67.30
2022-11-20T18:43:09.990Z,77.50
2022-11-20T18:45:42.636Z,62.90
2022-11-20T18:48:14.594Z,73.50
2022-11-20T18:50:47.062Z,84.10
2022-11-20T18:53:18.935Z,71.60
2022-11-20T18:55:51.268Z,82.60
2022-11-20T18:58:23.081Z,67.30
2022-11-20T19:00:55.298Z,76.20
2022-11-20T19:03:29.673Z,80.70
2022-11-20T19:06:02.048Z,74.30
2022-11-20T19:08:36.578Z,75.60
2022-11-20T19:11:10.355Z,70.10
2022-11-20T19:13:42.397Z,70.30
2022-11-20T19:16:18.043Z,69.20
2022-11-20T19:18:50.338Z,80.70
2022-11-20T19:21:23.943Z,79.90
2022-11-20T19:23:58.539Z,64.90
2022-11-20T19:26:31.271Z,65.60
2022-11-20T19:29:15.766Z,65.80
2022-11-20T19:31:49.282Z,68.30
2022-11-20T19:34:34.763Z,65.30
2022-11-20T19:37:11.288Z,71.80
2022-11-20T19:39:43.518Z,83.50
2022-11-20T19:42:16.720Z,70.50
2022-11-20T19:44:48.461Z,64.80
2022-11-20T19:47:40.825Z,89.20
2022-11-20T19:50:25.791Z,78.80
2022-11-20T19:53:02.272Z,68.90
2022-11-20T19:55:34.870Z,69.90
2022-11-20T19:58:07.095Z,71.50
2022-11-20T20:00:39.068Z,75.10
2022-11-20T20:03:14.904Z,64.50
2022-11-20T20:05:52.320Z,71.70
2022-11-20T20:08:24.412Z,88.00
2022-11-20T20:10:59.918Z,78.00
2022-11-20T20:13:33.570Z,80.10
2022-11-20T20:16:11.592Z,72.10
2022-11-20T20:18:45.801Z,60.20
2022-11-20T20:21:24.328Z,80.50
2022-11-20T20:23:57.404Z,65.50
2022-11-20T20:26:31.606Z,74.00
2022-11-20T20:29:04.971Z,65.60
2022-11-20T20:31:38.492Z,77.70
2022-11-20T20:34:15.510Z,74.20
2022-11-20T20:36:47.300Z,68.90
2022-11-20T20:39:20.030Z,67.30
2022-11-20T20:41:53.470Z,71.30
2022-11-20T20:44:43.025Z,71.90
2022-11-20T20:47:14.874Z,63.90
2022-11-20T20:49:47.114Z,77.00
2022-11-20T20:52:19.108Z,74.70
2022-11-20T20:54:51.382Z,71.90
2022-11-20T20:57:23.801Z,77.30
2022-11-20T20:59:55.965Z,79.90
2022-11-20T21:02:28.246Z,70.40
2022-11-20T21:05:00.657Z,77.00
2022-11-20T21:07:33.629Z,77.50
2022-11-20T21:10:05.911Z,70.90
2022-11-20T21:12:37.758Z,65.10
2022-11-20T21:15:10.825Z,70.10
2022-11-20T21:17:44.424Z,84.30
2022-11-20T21:23:17.728Z,69.40
2022-11-20T21:25:49.851Z,76.40
2022-11-20T21:28:21.879Z,75.10
2022-11-20T21:30:54.050Z,72.50
2022-11-20T21:33:26.004Z,75.40
2022-11-20T21:35:57.894Z,77.10
2022-11-20T21:38:29.761Z,80.70
2022-11-20T21:41:01.705Z,76.40
2022-11-20T21:43:33.657Z,73.10
2022-11-20T21:46:07.819Z,83.50
2022-11-20T21:48:46.654Z,83.40
2022-11-20T21:51:22.924Z,75.30
2022-11-20T21:53:57.931Z,81.20
2022-11-20T21:56:29.996Z,90.30
2022-11-20T21:59:02.092Z,73.90
2022-11-20T22:01:34.224Z,82.10
2022-11-20T22:04:07.833Z,82.80
2022-11-20T22:06:39.639Z,82.30
2022-11-20T22:09:12.782Z,80.10
2022-11-20T22:11:44.507Z,80.50
2022-11-20T22:14:22.785Z,80.70
2022-11-20T22:16:56.425Z,78.10
2022-11-20T22:19:31.970Z,84.40
2022-11-20T22:22:04.089Z,79.20
2022-11-20T22:24:35.721Z,92.10
2022-11-20T22:27:07.599Z,93.30
2022-11-20T22:29:39.409Z,82.80
2022-11-20T22:32:11.292Z,90.00
2022-11-20T22:34:43.016Z,82.40
2022-11-20T22:37:16.183Z,86.30
2022-11-20T22:39:48.916Z,77.80
2022-11-20T22:42:20.913Z,86.30
2022-11-20T22:44:52.956Z,87.80
2022-11-20T22:47:25.117Z,83.40
2022-11-20T22:49:56.984Z,85.00
2022-11-20T22:52:29.006Z,89.00
2022-11-20T22:55:00.676Z,78.50
2022-11-20T22:57:34.019Z,83.30
2022-11-20T23:00:15.099Z,83.50
2022-11-20T23:02:47.795Z,95.30
2022-11-20T23:05:22.195Z,87.90
2022-11-20T23:08:07.225Z,75.80
2022-11-20T23:10:42.685Z,78.80
2022-11-20T23:13:19.111Z,79.20
2022-11-20T23:15:52.989Z,84.10
2022-11-20T23:18:35.506Z,78.60
2022-11-20T23:21:09.868Z,76.50
2022-11-20T23:23:42.757Z,83.30
2022-11-20T23:26:16.577Z,91.30
2022-11-20T23:28:49.571Z,87.40
2022-11-20T23:31:24.137Z,91.00
2022-11-20T23:33:57.635Z,104.80
2022-11-20T23:36:30.297Z,95.10
2022-11-20T23:39:02.195Z,75.70
2022-11-20T23:41:34.200Z,86.50
2022-11-20T23:44:06.164Z,85.10
2022-11-20T23:46:38.979Z,96.70
2022-11-20T23:49:11.595Z,87.70
2022-11-20T23:51:43.663Z,77.20
2022-11-20T23:54:15.452Z,96.20
2022-11-20T23:56:47.179Z,86.70
2022-11-20T23:59:19.508Z,76.80
